Airfield :







YOU CAN JOIN US ON...

 
LOGIN :

Register | Disclaimer

   EN    FR    IT 

 









Legend :    VFR   Marginal VFR   IFR   Intensive IFR   Very Intensive IFR
Visi :
Ceiling :
>= 8 km
>= 3000ft
5 to 8 km
1000 to 3000 ft
1500m to 5 km
500 to 1000 ft
800 to 1500m
200 to 500 ft
< 800m
< 200 ft
Symbols :   Thunderstorms  Fog  Heavy snow  Heavy precipitations  Wind > 20 kt







- Airport Elevation : 21 ft
- IATA code : YVM


CYVM - Qikiqtarjuac

CURRENT METAR :
  • 230600Z AUTO 04004KT 7SM -SN OVC042 M17/M21 A2976 RMK SLP079

EXPIRED METARs :
  • 230550Z AUTO 02007KT 6SM -SN OVC040 M17/M21 A2976 RMK SLP079
  • 230500Z AUTO 06003KT 010V080 4SM -SN OVC040 M18/M21 A2976 RMK SLP079
  • 230416Z AUTO 03003KT 5SM -SN OVC042 M18/M21 A2975 RMK SLP078
  • 230400Z AUTO 08004KT 070V150 8SM -SN OVC038 M19/M22 A2975 RMK SLP078

TAF TAF CYVM
Valid from the 23 at 01:00 until the 23 at 13:00 UTC


230038Z 2301/2313 02012KT P6SM SCT050 OVC100
TEMPO 2301/2313 3SM -SN BKN050 OVC100
BECMG 2301/2303 36010KT RMK FCST BASED ON AUTO OBS. NXT FCST BY 230700Z
CZEG FIR / North America



MET'MAP, your aeronautical weather chart ! - Copyright ORBIFLY December 2007 - Disclaimer

ORBIFLY MET'MAP TEAM :

Programming & Development : Alexandra Zaïnal
Concept & Development : Baudouin d'Aumeries
Co-Development & Prog : Marc-Olivier Méhu
Technical & hardware support : Manuel Goepfert

Contact : metmap@orbifly.com




SOURCES & CREDITS :

   NOAA